GABS/BKO METAR and TAF weather

Enter ICAO airport designator
Station Type Date Time Source
GABS METAR 2019/05/25 08:30 UTC NOAA

GABS 250830Z 21003KT 160V250 9999 FEW030 24/22 Q1015 NOSIG


Station Type Date Time Source
GABS Decoded METAR 2019/05/25 08:30 UTC NOAA

Bamako / Senou, Mali (GABS) 12-32N 007-57W 381M
May 25, 2019 - 04:30 AM EDT / 2019.05.25 0830 UTC
Wind: from the SSW (210 degrees) at 3 MPH (3 KT) (direction variable):0
Visibility: greater than 7 mile(s):0
Sky conditions: mostly clear
Temperature: 75 F (24 C)
Dew Point: 71 F (22 C)
Relative Humidity: 88%
Pressure (altimeter): 29.97 in. Hg (1015 hPa)
ob: GABS 250830Z 21003KT 160V250 9999 FEW030 24/22 Q1015 NOSIG
cycle: 8

Station Type Date Time Source
GABS TAF 2019/05/25 06:42 UTC NOAA

TAF TAF GABS 250530Z 2506/2612 25010KT 9999 SCT030 PROB40
TEMPO 2514/2517 TS
BECMG 2517/2519 08015G35KT 2000 TSRA SCT030 FEW033CB
BECMG 2606/2608 22010KT 9999 NSW SCT030

Example: see airport list